sensor_id;sensor_type;location;lat;lon;timestamp;pressure;altitude;pressure_sealevel;temperature;humidity
30516;BME280;17297;54.022;10.760;2023-02-17T00:01:31;101488.53;;;10.57;72.32
30516;BME280;17297;54.022;10.760;2023-02-17T00:03:57;101482.13;;;10.58;72.05
30516;BME280;17297;54.022;10.760;2023-02-17T00:06:26;101486.69;;;10.58;72.16
30516;BME280;17297;54.022;10.760;2023-02-17T00:08:52;101481.16;;;10.59;72.20
30516;BME280;17297;54.022;10.760;2023-02-17T00:11:18;101482.81;;;10.60;72.34
30516;BME280;17297;54.022;10.760;2023-02-17T00:13:44;101488.00;;;10.62;72.20
30516;BME280;17297;54.022;10.760;2023-02-17T00:16:21;101481.78;;;10.61;72.31
30516;BME280;17297;54.022;10.760;2023-02-17T00:18:51;101478.25;;;10.61;72.23
30516;BME280;17297;54.022;10.760;2023-02-17T00:21:20;101478.09;;;10.62;72.24
30516;BME280;17297;54.022;10.760;2023-02-17T00:23:47;101483.50;;;10.62;72.31
30516;BME280;17297;54.022;10.760;2023-02-17T00:26:13;101478.94;;;10.63;72.45
30516;BME280;17297;54.022;10.760;2023-02-17T00:28:40;101475.22;;;10.64;72.35
30516;BME280;17297;54.022;10.760;2023-02-17T00:31:17;101465.28;;;10.64;72.46
30516;BME280;17297;54.022;10.760;2023-02-17T00:33:43;101467.00;;;10.66;72.40
30516;BME280;17297;54.022;10.760;2023-02-17T00:36:16;101464.31;;;10.66;72.41
30516;BME280;17297;54.022;10.760;2023-02-17T00:38:42;101457.91;;;10.67;72.50
30516;BME280;17297;54.022;10.760;2023-02-17T00:41:08;101454.19;;;10.68;72.40
30516;BME280;17297;54.022;10.760;2023-02-17T00:43:33;101453.19;;;10.69;72.47
30516;BME280;17297;54.022;10.760;2023-02-17T00:45:58;101452.16;;;10.70;72.53
30516;BME280;17297;54.022;10.760;2023-02-17T00:48:24;101444.09;;;10.70;72.55
30516;BME280;17297;54.022;10.760;2023-02-17T00:50:49;101442.06;;;10.72;72.55
30516;BME280;17297;54.022;10.760;2023-02-17T00:53:16;101442.06;;;10.72;72.62
30516;BME280;17297;54.022;10.760;2023-02-17T00:55:41;101440.22;;;10.72;72.68
30516;BME280;17297;54.022;10.760;2023-02-17T00:58:07;101436.50;;;10.73;72.59
30516;BME280;17297;54.022;10.760;2023-02-17T01:00:32;101427.22;;;10.76;72.61
30516;BME280;17297;54.022;10.760;2023-02-17T01:02:59;101428.06;;;10.76;72.75
30516;BME280;17297;54.022;10.760;2023-02-17T01:05:24;101425.38;;;10.76;72.82
30516;BME280;17297;54.022;10.760;2023-02-17T01:07:50;101418.97;;;10.77;72.93
30516;BME280;17297;54.022;10.760;2023-02-17T01:10:15;101413.59;;;10.77;72.81
30516;BME280;17297;54.022;10.760;2023-02-17T01:12:41;101402.66;;;10.79;72.84
30516;BME280;17297;54.022;10.760;2023-02-17T01:15:06;101398.09;;;10.79;72.81
30516;BME280;17297;54.022;10.760;2023-02-17T01:17:32;101390.88;;;10.80;72.91
30516;BME280;17297;54.022;10.760;2023-02-17T01:19:57;101392.53;;;10.81;72.84
30516;BME280;17297;54.022;10.760;2023-02-17T01:22:22;101391.34;;;10.83;72.93
30516;BME280;17297;54.022;10.760;2023-02-17T01:24:48;101388.66;;;10.83;73.04
30516;BME280;17297;54.022;10.760;2023-02-17T01:27:14;101377.88;;;10.83;72.91
30516;BME280;17297;54.022;10.760;2023-02-17T01:29:39;101383.94;;;10.85;73.04
30516;BME280;17297;54.022;10.760;2023-02-17T01:32:04;101383.94;;;10.85;73.00
30516;BME280;17297;54.022;10.760;2023-02-17T01:34:30;101374.00;;;10.86;72.90
30516;BME280;17297;54.022;10.760;2023-02-17T01:36:55;101364.06;;;10.86;72.85
30516;BME280;17297;54.022;10.760;2023-02-17T01:39:21;101359.53;;;10.87;73.05
30516;BME280;17297;54.022;10.760;2023-02-17T01:41:46;101361.22;;;10.88;72.90
30516;BME280;17297;54.022;10.760;2023-02-17T01:44:14;101354.81;;;10.89;72.98
30516;BME280;17297;54.022;10.760;2023-02-17T01:46:42;101348.59;;;10.89;73.21
30516;BME280;17297;54.022;10.760;2023-02-17T01:49:34;101338.66;;;10.89;73.12
30516;BME280;17297;54.022;10.760;2023-02-17T01:52:22;101338.66;;;10.89;73.19
30516;BME280;17297;54.022;10.760;2023-02-17T01:54:58;101331.41;;;10.90;73.21
30516;BME280;17297;54.022;10.760;2023-02-17T01:57:29;101323.34;;;10.90;73.19
30516;BME280;17297;54.022;10.760;2023-02-17T01:59:57;101321.47;;;10.90;73.21
30516;BME280;17297;54.022;10.760;2023-02-17T02:02:23;101321.31;;;10.92;73.17
30516;BME280;17297;54.022;10.760;2023-02-17T02:04:51;101300.59;;;10.92;73.17
30516;BME280;17297;54.022;10.760;2023-02-17T02:07:25;101298.75;;;10.93;73.29
30516;BME280;17297;54.022;10.760;2023-02-17T02:09:53;101284.47;;;10.92;73.33
30516;BME280;17297;54.022;10.760;2023-02-17T02:12:39;101278.91;;;10.94;73.33
30516;BME280;17297;54.022;10.760;2023-02-17T02:15:07;101284.09;;;10.95;73.24
30516;BME280;17297;54.022;10.760;2023-02-17T02:20:36;101275.00;;;10.96;73.40
30516;BME280;17297;54.022;10.760;2023-02-17T02:31:53;101258.66;;;10.98;73.47
30516;BME280;17297;54.022;10.760;2023-02-17T02:34:23;101256.81;;;10.98;73.47
30516;BME280;17297;54.022;10.760;2023-02-17T02:37:08;101258.47;;;10.99;73.54
30516;BME280;17297;54.022;10.760;2023-02-17T02:39:39;101254.78;;;11.00;73.59
30516;BME280;17297;54.022;10.760;2023-02-17T02:42:09;101254.78;;;11.00;73.43
30516;BME280;17297;54.022;10.760;2023-02-17T02:44:37;101246.50;;;11.02;73.58
30516;BME280;17297;54.022;10.760;2023-02-17T02:47:06;101240.94;;;11.03;73.51
30516;BME280;17297;54.022;10.760;2023-02-17T02:49:50;101239.91;;;11.04;73.67
30516;BME280;17297;54.022;10.760;2023-02-17T02:52:46;101228.13;;;11.05;73.81
30516;BME280;17297;54.022;10.760;2023-02-17T03:00:33;101212.63;;;11.07;73.66
30516;BME280;17297;54.022;10.760;2023-02-17T03:03:21;101218.69;;;11.09;73.86
30516;BME280;17297;54.022;10.760;2023-02-17T03:06:23;101210.41;;;11.11;73.89
30516;BME280;17297;54.022;10.760;2023-02-17T03:09:04;101203.16;;;11.12;73.85
30516;BME280;17297;54.022;10.760;2023-02-17T03:11:30;101198.63;;;11.12;73.67
30516;BME280;17297;54.022;10.760;2023-02-17T03:14:10;101189.53;;;11.13;73.92
30516;BME280;17297;54.022;10.760;2023-02-17T03:16:38;101186.63;;;11.15;73.85
30516;BME280;17297;54.022;10.760;2023-02-17T03:19:04;101195.53;;;11.15;73.94
30516;BME280;17297;54.022;10.760;2023-02-17T03:21:38;101199.91;;;11.16;73.97
30516;BME280;17297;54.022;10.760;2023-02-17T03:24:05;101197.03;;;11.18;73.84
30516;BME280;17297;54.022;10.760;2023-02-17T03:26:31;101178.84;;;11.20;73.87
30516;BME280;17297;54.022;10.760;2023-02-17T03:28:56;101183.19;;;11.21;74.01
30516;BME280;17297;54.022;10.760;2023-02-17T03:31:22;101187.56;;;11.22;74.01
30516;BME280;17297;54.022;10.760;2023-02-17T03:33:48;101189.03;;;11.24;74.01
30516;BME280;17297;54.022;10.760;2023-02-17T03:36:13;101179.13;;;11.25;74.18
30516;BME280;17297;54.022;10.760;2023-02-17T03:38:38;101188.03;;;11.25;73.88
30516;BME280;17297;54.022;10.760;2023-02-17T03:41:04;101183.28;;;11.27;74.15
30516;BME280;17297;54.022;10.760;2023-02-17T03:43:29;101184.13;;;11.28;74.07
30516;BME280;17297;54.022;10.760;2023-02-17T03:45:55;101185.78;;;11.29;74.05
30516;BME280;17297;54.022;10.760;2023-02-17T03:48:20;101176.69;;;11.30;74.11
30516;BME280;17297;54.022;10.760;2023-02-17T03:50:45;101173.00;;;11.31;74.16
30516;BME280;17297;54.022;10.760;2023-02-17T03:53:11;101180.88;;;11.32;74.10
30516;BME280;17297;54.022;10.760;2023-02-17T03:55:36;101186.09;;;11.34;74.34
30516;BME280;17297;54.022;10.760;2023-02-17T03:58:02;101183.38;;;11.34;74.22
30516;BME280;17297;54.022;10.760;2023-02-17T04:00:27;101172.41;;;11.36;74.02
30516;BME280;17297;54.022;10.760;2023-02-17T04:02:52;101170.56;;;11.36;74.15
30516;BME280;17297;54.022;10.760;2023-02-17T04:05:18;101156.06;;;11.37;74.16
30516;BME280;17297;54.022;10.760;2023-02-17T04:07:43;101163.13;;;11.38;74.19
30516;BME280;17297;54.022;10.760;2023-02-17T04:10:09;101153.19;;;11.39;74.35
30516;BME280;17297;54.022;10.760;2023-02-17T04:12:36;101143.25;;;11.39;74.35
30516;BME280;17297;54.022;10.760;2023-02-17T04:15:01;101151.97;;;11.41;74.32
30516;BME280;17297;54.022;10.760;2023-02-17T04:17:27;101159.84;;;11.43;74.34
30516;BME280;17297;54.022;10.760;2023-02-17T04:19:52;101150.13;;;11.42;74.46
30516;BME280;17297;54.022;10.760;2023-02-17T04:22:17;101150.78;;;11.44;74.43
30516;BME280;17297;54.022;10.760;2023-02-17T04:24:43;101153.47;;;11.44;74.42
30516;BME280;17297;54.022;10.760;2023-02-17T04:27:08;101149.53;;;11.46;74.51
30516;BME280;17297;54.022;10.760;2023-02-17T04:29:33;101153.25;;;11.45;74.48
30516;BME280;17297;54.022;10.760;2023-02-17T04:31:59;101158.28;;;11.48;74.44
30516;BME280;17297;54.022;10.760;2023-02-17T04:34:25;101150.19;;;11.48;74.43
30516;BME280;17297;54.022;10.760;2023-02-17T04:36:50;101151.03;;;11.49;74.48
30516;BME280;17297;54.022;10.760;2023-02-17T04:39:16;101135.69;;;11.49;74.56
30516;BME280;17297;54.022;10.760;2023-02-17T04:41:41;101130.13;;;11.51;74.70
30516;BME280;17297;54.022;10.760;2023-02-17T04:44:06;101123.69;;;11.52;74.59
30516;BME280;17297;54.022;10.760;2023-02-17T04:46:32;101111.06;;;11.52;74.45
30516;BME280;17297;54.022;10.760;2023-02-17T04:48:57;101114.59;;;11.53;74.59
30516;BME280;17297;54.022;10.760;2023-02-17T04:51:23;101111.72;;;11.54;74.56
30516;BME280;17297;54.022;10.760;2023-02-17T04:53:48;101109.03;;;11.54;74.57
30516;BME280;17297;54.022;10.760;2023-02-17T04:56:13;101084.59;;;11.56;74.58
30516;BME280;17297;54.022;10.760;2023-02-17T04:58:39;101098.06;;;11.56;74.67
30516;BME280;17297;54.022;10.760;2023-02-17T05:01:04;101093.50;;;11.56;74.63
30516;BME280;17297;54.022;10.760;2023-02-17T05:03:30;101083.34;;;11.59;74.78
30516;BME280;17297;54.022;10.760;2023-02-17T05:05:55;101075.09;;;11.60;74.80
30516;BME280;17297;54.022;10.760;2023-02-17T05:08:20;101074.25;;;11.60;74.65
30516;BME280;17297;54.022;10.760;2023-02-17T05:10:46;101075.91;;;11.61;74.76
30516;BME280;17297;54.022;10.760;2023-02-17T05:13:11;101071.19;;;11.63;74.79
30516;BME280;17297;54.022;10.760;2023-02-17T05:15:37;101061.03;;;11.65;74.72
30516;BME280;17297;54.022;10.760;2023-02-17T05:18:02;101059.19;;;11.65;74.66
30516;BME280;17297;54.022;10.760;2023-02-17T05:20:28;101060.84;;;11.66;74.72
30516;BME280;17297;54.022;10.760;2023-02-17T05:22:53;101065.19;;;11.67;74.74
30516;BME280;17297;54.022;10.760;2023-02-17T05:25:22;101060.66;;;11.68;74.79
30516;BME280;17297;54.022;10.760;2023-02-17T05:27:47;101053.41;;;11.68;74.84
30516;BME280;17297;54.022;10.760;2023-02-17T05:30:13;101056.72;;;11.70;74.97
30516;BME280;17297;54.022;10.760;2023-02-17T05:32:38;101051.34;;;11.70;74.76
30516;BME280;17297;54.022;10.760;2023-02-17T05:35:04;101055.72;;;11.71;74.79
30516;BME280;17297;54.022;10.760;2023-02-17T05:37:29;101042.03;;;11.73;74.99
30516;BME280;17297;54.022;10.760;2023-02-17T05:39:55;101047.25;;;11.74;74.94
30516;BME280;17297;54.022;10.760;2023-02-17T05:42:20;101026.53;;;11.75;74.81
30516;BME280;17297;54.022;10.760;2023-02-17T05:44:45;101026.53;;;11.75;74.86
30516;BME280;17297;54.022;10.760;2023-02-17T05:47:11;101031.72;;;11.76;74.78
30516;BME280;17297;54.022;10.760;2023-02-17T05:49:36;101028.84;;;11.78;74.84
30516;BME280;17297;54.022;10.760;2023-02-17T05:52:01;101019.72;;;11.79;74.84
30516;BME280;17297;54.022;10.760;2023-02-17T05:54:27;101017.00;;;11.79;74.93
30516;BME280;17297;54.022;10.760;2023-02-17T05:56:52;101014.09;;;11.80;74.93
30516;BME280;17297;54.022;10.760;2023-02-17T05:59:18;101012.28;;;11.81;75.01
30516;BME280;17297;54.022;10.760;2023-02-17T06:01:43;101016.63;;;11.82;75.14
30516;BME280;17297;54.022;10.760;2023-02-17T06:04:09;101014.59;;;11.84;75.05
30516;BME280;17297;54.022;10.760;2023-02-17T06:06:34;101009.00;;;11.86;74.96
30516;BME280;17297;54.022;10.760;2023-02-17T06:08:59;100995.34;;;11.87;74.95
30516;BME280;17297;54.022;10.760;2023-02-17T06:11:25;100982.72;;;11.88;74.99
30516;BME280;17297;54.022;10.760;2023-02-17T06:13:50;100976.28;;;11.89;75.18
30516;BME280;17297;54.022;10.760;2023-02-17T06:16:15;100972.53;;;11.90;75.02
30516;BME280;17297;54.022;10.760;2023-02-17T06:18:41;100975.06;;;11.91;75.02
30516;BME280;17297;54.022;10.760;2023-02-17T06:21:06;100967.78;;;11.92;75.19
30516;BME280;17297;54.022;10.760;2023-02-17T06:23:31;100948.94;;;11.92;75.15
30516;BME280;17297;54.022;10.760;2023-02-17T06:25:57;100955.16;;;11.92;75.05
30516;BME280;17297;54.022;10.760;2023-02-17T06:28:22;100951.44;;;11.93;75.16
30516;BME280;17297;54.022;10.760;2023-02-17T06:30:47;100951.44;;;11.93;75.15
30516;BME280;17297;54.022;10.760;2023-02-17T06:33:13;100938.78;;;11.94;75.19
30516;BME280;17297;54.022;10.760;2023-02-17T06:35:39;100946.66;;;11.95;75.08
30516;BME280;17297;54.022;10.760;2023-02-17T06:38:04;100947.72;;;11.94;75.17
30516;BME280;17297;54.022;10.760;2023-02-17T06:40:30;100934.00;;;11.96;75.07
30516;BME280;17297;54.022;10.760;2023-02-17T06:42:55;100927.78;;;11.95;75.29
30516;BME280;17297;54.022;10.760;2023-02-17T06:45:20;100915.13;;;11.96;75.12
30516;BME280;17297;54.022;10.760;2023-02-17T06:47:46;100912.25;;;11.97;75.30
30516;BME280;17297;54.022;10.760;2023-02-17T06:50:11;100906.66;;;11.99;75.17
30516;BME280;17297;54.022;10.760;2023-02-17T06:52:37;100912.03;;;11.99;75.26
30516;BME280;17297;54.022;10.760;2023-02-17T06:55:02;100907.50;;;11.99;75.22
30516;BME280;17297;54.022;10.760;2023-02-17T06:57:28;100902.13;;;11.99;75.29
30516;BME280;17297;54.022;10.760;2023-02-17T06:59:53;100910.00;;;12.01;75.12
30516;BME280;17297;54.022;10.760;2023-02-17T07:02:19;100906.47;;;12.00;75.13
30516;BME280;17297;54.022;10.760;2023-02-17T07:04:44;100904.59;;;12.01;75.17
30516;BME280;17297;54.022;10.760;2023-02-17T07:07:10;100898.38;;;12.00;75.09
30516;BME280;17297;54.022;10.760;2023-02-17T07:09:36;100895.69;;;12.00;75.38
30516;BME280;17297;54.022;10.760;2023-02-17T07:12:02;100890.28;;;12.00;75.15
30516;BME280;17297;54.022;10.760;2023-02-17T07:14:28;100893.81;;;12.01;75.36
30516;BME280;17297;54.022;10.760;2023-02-17T07:16:53;100888.25;;;12.02;75.19
30516;BME280;17297;54.022;10.760;2023-02-17T07:19:19;100884.69;;;12.02;75.37
30516;BME280;17297;54.022;10.760;2023-02-17T07:21:44;100878.28;;;12.03;75.38
30516;BME280;17297;54.022;10.760;2023-02-17T07:24:10;100869.97;;;12.05;75.33
30516;BME280;17297;54.022;10.760;2023-02-17T07:26:37;100855.69;;;12.04;75.46
30516;BME280;17297;54.022;10.760;2023-02-17T07:29:04;100855.50;;;12.06;75.39
30516;BME280;17297;54.022;10.760;2023-02-17T07:31:30;100849.88;;;12.07;75.48
30516;BME280;17297;54.022;10.760;2023-02-17T07:33:56;100858.81;;;12.08;75.55
30516;BME280;17297;54.022;10.760;2023-02-17T07:36:21;100849.69;;;12.09;75.42
30516;BME280;17297;54.022;10.760;2023-02-17T07:38:47;100861.31;;;12.09;75.35
30516;BME280;17297;54.022;10.760;2023-02-17T07:41:15;100858.63;;;12.09;75.50
30516;BME280;17297;54.022;10.760;2023-02-17T07:43:41;100849.69;;;12.09;75.56
30516;BME280;17297;54.022;10.760;2023-02-17T07:46:08;100858.41;;;12.11;75.51
30516;BME280;17297;54.022;10.760;2023-02-17T07:48:33;100863.59;;;12.12;75.38
30516;BME280;17297;54.022;10.760;2023-02-17T07:51:05;100851.13;;;12.11;75.64
30516;BME280;17297;54.022;10.760;2023-02-17T07:53:31;100848.44;;;12.11;75.55
30516;BME280;17297;54.022;10.760;2023-02-17T07:55:57;100840.16;;;12.13;75.46
30516;BME280;17297;54.022;10.760;2023-02-17T07:58:22;100829.38;;;12.13;75.33
30516;BME280;17297;54.022;10.760;2023-02-17T08:00:47;100823.78;;;12.14;75.48
30516;BME280;17297;54.022;10.760;2023-02-17T08:03:13;100828.97;;;12.16;75.44
30516;BME280;17297;54.022;10.760;2023-02-17T08:05:39;100826.28;;;12.16;75.65
30516;BME280;17297;54.022;10.760;2023-02-17T08:08:06;100831.69;;;12.16;75.74
30516;BME280;17297;54.022;10.760;2023-02-17T08:10:50;100821.72;;;12.16;75.45
30516;BME280;17297;54.022;10.760;2023-02-17T08:13:34;100817.97;;;12.17;75.66
30516;BME280;17297;54.022;10.760;2023-02-17T08:16:00;100824.19;;;12.18;75.56
30516;BME280;17297;54.022;10.760;2023-02-17T08:18:25;100805.31;;;12.18;75.55
30516;BME280;17297;54.022;10.760;2023-02-17T08:20:51;100804.31;;;12.19;75.57
30516;BME280;17297;54.022;10.760;2023-02-17T08:23:19;100799.72;;;12.19;75.58
30516;BME280;17297;54.022;10.760;2023-02-17T08:25:44;100797.03;;;12.19;75.58
30516;BME280;17297;54.022;10.760;2023-02-17T08:28:10;100789.59;;;12.21;75.63
30516;BME280;17297;54.022;10.760;2023-02-17T08:30:35;100782.31;;;12.22;75.77
30516;BME280;17297;54.022;10.760;2023-02-17T08:33:02;100755.34;;;12.22;75.70
30516;BME280;17297;54.022;10.760;2023-02-17T08:35:29;100765.91;;;12.23;75.80
30516;BME280;17297;54.022;10.760;2023-02-17T08:37:54;100754.94;;;12.25;75.67
30516;BME280;17297;54.022;10.760;2023-02-17T08:40:20;100757.66;;;12.25;75.80
30516;BME280;17297;54.022;10.760;2023-02-17T08:42:45;100754.13;;;12.24;75.63
30516;BME280;17297;54.022;10.760;2023-02-17T08:45:13;100758.47;;;12.25;75.92
30516;BME280;17297;54.022;10.760;2023-02-17T08:47:39;100738.53;;;12.27;75.66
30516;BME280;17297;54.022;10.760;2023-02-17T08:50:05;100723.19;;;12.27;75.66
30516;BME280;17297;54.022;10.760;2023-02-17T08:52:30;100723.00;;;12.29;75.72
30516;BME280;17297;54.022;10.760;2023-02-17T08:54:56;100718.44;;;12.29;75.91
30516;BME280;17297;54.022;10.760;2023-02-17T08:57:21;100716.56;;;12.30;75.87
30516;BME280;17297;54.022;10.760;2023-02-17T08:59:47;100713.88;;;12.30;75.67
30516;BME280;17297;54.022;10.760;2023-02-17T09:02:15;100712.63;;;12.32;75.79
30516;BME280;17297;54.022;10.760;2023-02-17T09:04:40;100725.94;;;12.34;75.68
30516;BME280;17297;54.022;10.760;2023-02-17T09:07:12;100715.53;;;12.31;76.04
30516;BME280;17297;54.022;10.760;2023-02-17T09:09:39;100710.97;;;12.31;75.90
30516;BME280;17297;54.022;10.760;2023-02-17T09:12:04;100715.31;;;12.32;75.92
30516;BME280;17297;54.022;10.760;2023-02-17T09:14:30;100706.19;;;12.33;75.77
30516;BME280;17297;54.022;10.760;2023-02-17T09:16:56;100700.78;;;12.33;75.94
30516;BME280;17297;54.022;10.760;2023-02-17T09:19:22;100673.81;;;12.33;75.82
30516;BME280;17297;54.022;10.760;2023-02-17T09:21:48;100667.41;;;12.34;75.95
30516;BME280;17297;54.022;10.760;2023-02-17T09:24:14;100689.81;;;12.35;75.85
30516;BME280;17297;54.022;10.760;2023-02-17T09:26:40;100689.59;;;12.36;75.85
30516;BME280;17297;54.022;10.760;2023-02-17T09:29:06;100689.41;;;12.38;75.76
30516;BME280;17297;54.022;10.760;2023-02-17T09:31:33;100685.06;;;12.37;75.97
30516;BME280;17297;54.022;10.760;2023-02-17T09:33:59;100688.56;;;12.37;75.92
30516;BME280;17297;54.022;10.760;2023-02-17T09:36:27;100669.69;;;12.37;75.81
30516;BME280;17297;54.022;10.760;2023-02-17T09:38:54;100666.78;;;12.39;75.84
30516;BME280;17297;54.022;10.760;2023-02-17T09:41:23;100670.09;;;12.41;76.04
30516;BME280;17297;54.022;10.760;2023-02-17T09:43:51;100676.53;;;12.40;76.04
30516;BME280;17297;54.022;10.760;2023-02-17T09:46:28;100667.59;;;12.39;76.08
30516;BME280;17297;54.022;10.760;2023-02-17T09:48:58;100686.06;;;12.42;76.00
30516;BME280;17297;54.022;10.760;2023-02-17T09:54:10;100681.72;;;12.41;75.93
30516;BME280;17297;54.022;10.760;2023-02-17T09:56:41;100666.34;;;12.42;76.08
30516;BME280;17297;54.022;10.760;2023-02-17T09:59:25;100665.34;;;12.43;76.15
30516;BME280;17297;54.022;10.760;2023-02-17T10:01:52;100661.59;;;12.44;75.96
30516;BME280;17297;54.022;10.760;2023-02-17T10:04:37;100680.25;;;12.45;75.99
30516;BME280;17297;54.022;10.760;2023-02-17T10:07:19;100667.59;;;12.46;76.01
30516;BME280;17297;54.022;10.760;2023-02-17T10:09:49;100675.50;;;12.47;76.02
30516;BME280;17297;54.022;10.760;2023-02-17T10:12:23;100664.72;;;12.47;76.02
30516;BME280;17297;54.022;10.760;2023-02-17T10:14:56;100641.25;;;12.48;76.22
30516;BME280;17297;54.022;10.760;2023-02-17T10:17:56;100624.88;;;12.50;76.21
30516;BME280;17297;54.022;10.760;2023-02-17T10:20:27;100613.03;;;12.51;76.22
30516;BME280;17297;54.022;10.760;2023-02-17T10:23:02;100610.09;;;12.52;76.18
30516;BME280;17297;54.022;10.760;2023-02-17T10:31:14;100617.19;;;12.60;76.15
30516;BME280;17297;54.022;10.760;2023-02-17T10:33:59;100613.44;;;12.61;76.27
30516;BME280;17297;54.022;10.760;2023-02-17T10:39:21;100616.94;;;12.61;76.11
30516;BME280;17297;54.022;10.760;2023-02-17T10:41:53;100604.31;;;12.62;76.09
30516;BME280;17297;54.022;10.760;2023-02-17T10:44:20;100613.44;;;12.61;76.05
30516;BME280;17297;54.022;10.760;2023-02-17T10:46:46;100626.91;;;12.61;76.15
30516;BME280;17297;54.022;10.760;2023-02-17T10:49:45;100626.91;;;12.61;76.18
30516;BME280;17297;54.022;10.760;2023-02-17T10:52:22;100624.03;;;12.62;76.25
30516;BME280;17297;54.022;10.760;2023-02-17T10:54:55;100604.09;;;12.63;76.10
30516;BME280;17297;54.022;10.760;2023-02-17T10:57:26;100588.53;;;12.65;76.16
30516;BME280;17297;54.022;10.760;2023-02-17T10:59:54;100581.03;;;12.67;76.18
30516;BME280;17297;54.022;10.760;2023-02-17T11:02:42;100569.22;;;12.68;76.52
30516;BME280;17297;54.022;10.760;2023-02-17T11:05:29;100603.25;;;12.69;76.47
30516;BME280;17297;54.022;10.760;2023-02-17T11:08:06;100580.41;;;12.72;76.43
30516;BME280;17297;54.022;10.760;2023-02-17T11:10:35;100587.25;;;12.75;76.29
30516;BME280;17297;54.022;10.760;2023-02-17T11:13:02;100585.97;;;12.77;76.23
30516;BME280;17297;54.022;10.760;2023-02-17T11:15:33;100566.91;;;12.79;76.32
30516;BME280;17297;54.022;10.760;2023-02-17T11:18:00;100553.16;;;12.80;76.40
30516;BME280;17297;54.022;10.760;2023-02-17T11:20:34;100559.00;;;12.84;76.32
30516;BME280;17297;54.022;10.760;2023-02-17T11:23:06;100556.91;;;12.86;76.55
30516;BME280;17297;54.022;10.760;2023-02-17T11:25:35;100559.81;;;12.91;76.47
30516;BME280;17297;54.022;10.760;2023-02-17T11:28:11;100537.97;;;12.92;76.54
30516;BME280;17297;54.022;10.760;2023-02-17T11:30:38;100543.81;;;12.96;76.57
30516;BME280;17297;54.022;10.760;2023-02-17T11:33:12;100541.09;;;12.96;76.48
30516;BME280;17297;54.022;10.760;2023-02-17T11:40:40;100543.56;;;12.98;76.35
30516;BME280;17297;54.022;10.760;2023-02-17T11:43:16;100525.50;;;12.98;76.44
30516;BME280;17297;54.022;10.760;2023-02-17T11:45:50;100527.38;;;12.98;76.44
30516;BME280;17297;54.022;10.760;2023-02-17T11:51:24;100536.28;;;12.98;76.74
30516;BME280;17297;54.022;10.760;2023-02-17T11:54:19;100541.50;;;13.00;76.51
30516;BME280;17297;54.022;10.760;2023-02-17T11:56:56;100528.59;;;13.02;76.50
30516;BME280;17297;54.022;10.760;2023-02-17T12:02:13;100536.06;;;13.06;76.45
30516;BME280;17297;54.022;10.760;2023-02-17T12:04:51;100532.31;;;13.07;76.64
30516;BME280;17297;54.022;10.760;2023-02-17T12:08:07;100535.84;;;13.08;76.53
30516;BME280;17297;54.022;10.760;2023-02-17T12:16:03;100525.66;;;13.10;76.57
30516;BME280;17297;54.022;10.760;2023-02-17T12:21:51;100514.63;;;13.11;76.54
30516;BME280;17297;54.022;10.760;2023-02-17T12:27:05;100517.31;;;13.11;76.56
30516;BME280;17297;54.022;10.760;2023-02-17T12:32:44;100520.03;;;13.11;76.73
30516;BME280;17297;54.022;10.760;2023-02-17T12:35:21;100509.47;;;13.10;76.57
30516;BME280;17297;54.022;10.760;2023-02-17T12:37:52;100521.09;;;13.10;76.61
30516;BME280;17297;54.022;10.760;2023-02-17T12:40:31;100502.19;;;13.10;76.68
30516;BME280;17297;54.022;10.760;2023-02-17T12:43:13;100510.09;;;13.12;76.69
30516;BME280;17297;54.022;10.760;2023-02-17T12:45:43;100496.34;;;13.13;76.67
30516;BME280;17297;54.022;10.760;2023-02-17T12:48:21;100507.97;;;13.14;76.74
30516;BME280;17297;54.022;10.760;2023-02-17T12:53:38;100490.13;;;13.13;76.76
30516;BME280;17297;54.022;10.760;2023-02-17T12:56:22;100509.84;;;13.13;76.81
30516;BME280;17297;54.022;10.760;2023-02-17T12:58:58;100518.19;;;13.12;76.57
30516;BME280;17297;54.022;10.760;2023-02-17T13:01:30;100512.78;;;13.12;76.61
30516;BME280;17297;54.022;10.760;2023-02-17T13:03:58;100508.19;;;13.12;76.73
30516;BME280;17297;54.022;10.760;2023-02-17T13:06:31;100521.09;;;13.10;76.53
30516;BME280;17297;54.022;10.760;2023-02-17T13:09:24;100521.91;;;13.11;76.84
30516;BME280;17297;54.022;10.760;2023-02-17T13:11:52;100524.59;;;13.11;76.55
30516;BME280;17297;54.022;10.760;2023-02-17T13:14:38;100493.25;;;13.10;76.83
30516;BME280;17297;54.022;10.760;2023-02-17T13:17:04;100511.94;;;13.11;76.60
30516;BME280;17297;54.022;10.760;2023-02-17T13:19:32;100510.09;;;13.12;76.73
30516;BME280;17297;54.022;10.760;2023-02-17T13:21:58;100514.44;;;13.13;76.65
30516;BME280;17297;54.022;10.760;2023-02-17T13:24:34;100495.53;;;13.13;76.69
30516;BME280;17297;54.022;10.760;2023-02-17T13:33:03;100490.94;;;13.13;76.82
30516;BME280;17297;54.022;10.760;2023-02-17T13:35:35;100509.03;;;13.13;76.83
30516;BME280;17297;54.022;10.760;2023-02-17T13:38:01;100487.41;;;13.13;76.78
30516;BME280;17297;54.022;10.760;2023-02-17T13:40:41;100482.84;;;13.13;76.81
30516;BME280;17297;54.022;10.760;2023-02-17T13:43:17;100500.94;;;13.13;76.72
30516;BME280;17297;54.022;10.760;2023-02-17T13:45:47;100508.19;;;13.12;76.71
30516;BME280;17297;54.022;10.760;2023-02-17T13:48:22;100519.22;;;13.11;76.80
30516;BME280;17297;54.022;10.760;2023-02-17T13:50:54;100512.97;;;13.10;76.55
30516;BME280;17297;54.022;10.760;2023-02-17T13:53:25;100498.66;;;13.10;76.75